Time;durP1;ratioP1;P1;durP2;ratioP2;P2;SDS_P1;SDS_P2;PMS_P1;PMS_P2;Temp;Humidity;BMP_temperature;BMP_pressure;BME280_temperature;BME280_humidity;BME280_pressure;Samples;Min_cycle;Max_cycle;Signal;HPM_P1;HPM_P2
2023/11/30 00:00:23;;;;;;;2.08;1.95;;;;;;;;;;1033708;28;20022;-70
2023/11/30 00:00:53;;;;;;;1.30;0.95;;;;;;;;;;1033916;28;20030;-70
2023/11/30 00:01:24;;;;;;;9.13;3.55;;;;;;;;;;1033891;28;20084;-70
2023/11/30 00:01:54;;;;;;;3.95;3.63;;;;;;;;;;1033895;28;20033;-70
2023/11/30 00:02:25;;;;;;;2.60;2.45;;;;;;;;;;1033929;28;20034;-70
2023/11/30 00:02:55;;;;;;;1.35;1.17;;;;;;;;;;1033155;28;20025;-70
2023/11/30 00:03:25;;;;;;;13.60;5.32;;;;;;;;;;1033954;28;20019;-70
2023/11/30 00:03:56;;;;;;;4.25;3.42;;;;;;;;;;1034009;28;20018;-70
2023/11/30 00:04:26;;;;;;;3.13;2.50;;;;;;;;;;1033885;28;20045;-70
2023/11/30 00:04:57;;;;;;;5.07;3.80;;;;;;;;;;1034002;28;20505;-70
2023/11/30 00:05:27;;;;;;;1.85;1.75;;;;;;;;;;1034015;28;20086;-70
2023/11/30 00:05:57;;;;;;;4.50;3.92;;;;;;;;;;1033976;28;20034;-70
2023/11/30 00:06:28;;;;;;;2.60;2.35;;;;;;;;;;1033770;28;20097;-70
2023/11/30 00:06:58;;;;;;;3.58;2.92;;;;;;;;;;1033978;28;20407;-70
2023/11/30 00:07:29;;;;;;;10.05;5.28;;;;;;;;;;1032636;28;20030;-70
2023/11/30 00:07:59;;;;;;;11.68;7.25;;;;;;;;;;1033855;28;20030;-70
2023/11/30 00:08:30;;;;;;;3.55;2.78;;;;;;;;;;1033893;28;20539;-70
2023/11/30 00:09:00;;;;;;;9.63;4.88;;;;;;;;;;1033985;28;20421;-70
2023/11/30 00:09:30;;;;;;;1.95;1.85;;;;;;;;;;1033530;28;20022;-70
2023/11/30 00:10:02;;;;;;;28.17;3.30;;;;;;;;;;1030997;28;20096;-70
2023/11/30 00:10:32;;;;;;;6.88;3.15;;;;;;;;;;1031545;28;20065;-70
2023/11/30 00:11:06;;;;;;;7.53;1.10;;;;;;;;;;1031608;28;20104;-70
2023/11/30 00:11:36;;;;;;;8.05;2.65;;;;;;;;;;1033715;28;20026;-70
2023/11/30 00:12:07;;;;;;;2.83;1.63;;;;;;;;;;1033932;28;20033;-70
2023/11/30 00:12:37;;;;;;;10.90;3.42;;;;;;;;;;1033734;28;20026;-70
2023/11/30 00:13:08;;;;;;;17.10;4.32;;;;;;;;;;1034113;28;20046;-70
2023/11/30 00:13:38;;;;;;;20.92;5.40;;;;;;;;;;1033693;28;20029;-70
2023/11/30 00:14:09;;;;;;;11.80;6.03;;;;;;;;;;1034025;28;20490;-70
2023/11/30 00:14:40;;;;;;;1.13;1.10;;;;;;;;;;1033819;28;20592;-70
2023/11/30 00:15:10;;;;;;;7.25;6.28;;;;;;;;;;1034207;28;20120;-70
2023/11/30 00:15:41;;;;;;;10.40;3.50;;;;;;;;;;1033717;28;20022;-70
2023/11/30 00:16:11;;;;;;;4.65;2.22;;;;;;;;;;1034004;28;20506;-70
2023/11/30 00:16:41;;;;;;;3.33;1.85;;;;;;;;;;1033818;28;20033;-70
2023/11/30 00:17:12;;;;;;;6.45;4.68;;;;;;;;;;1034002;28;20053;-70
2023/11/30 00:17:42;;;;;;;18.90;3.22;;;;;;;;;;1033823;28;20013;-70
2023/11/30 00:18:13;;;;;;;2.28;1.40;;;;;;;;;;1034034;28;20026;-70
2023/11/30 00:18:43;;;;;;;27.75;4.07;;;;;;;;;;1033700;28;20025;-70
2023/11/30 00:19:13;;;;;;;6.65;1.42;;;;;;;;;;1034096;28;20119;-70
2023/11/30 00:19:44;;;;;;;3.30;3.10;;;;;;;;;;1033659;28;20504;-70
2023/11/30 00:20:14;;;;;;;14.85;3.40;;;;;;;;;;1034027;28;20498;-70
2023/11/30 00:20:45;;;;;;;8.07;3.08;;;;;;;;;;1033719;28;20037;-70
2023/11/30 00:21:15;;;;;;;2.75;1.73;;;;;;;;;;1034007;28;20026;-70
2023/11/30 00:21:45;;;;;;;6.05;3.45;;;;;;;;;;1033672;28;20014;-70
2023/11/30 00:22:16;;;;;;;5.20;4.40;;;;;;;;;;1033780;28;20022;-70
2023/11/30 00:22:47;;;;;;;4.18;3.83;;;;;;;;;;1033625;28;20018;-70
2023/11/30 00:23:17;;;;;;;22.67;5.57;;;;;;;;;;1033868;28;20117;-70
2023/11/30 00:23:48;;;;;;;5.97;5.40;;;;;;;;;;1033762;28;20026;-70
2023/11/30 00:24:18;;;;;;;15.75;3.45;;;;;;;;;;1034205;28;20022;-70
2023/11/30 00:24:48;;;;;;;0.95;0.95;;;;;;;;;;1033747;28;20025;-70
2023/11/30 00:25:19;;;;;;;3.75;3.45;;;;;;;;;;1033936;28;20062;-70
2023/11/30 00:25:49;;;;;;;25.45;6.32;;;;;;;;;;1033633;28;20026;-70
2023/11/30 00:26:20;;;;;;;0.93;0.93;;;;;;;;;;1033960;28;20034;-70
2023/11/30 00:26:50;;;;;;;3.75;1.58;;;;;;;;;;1033728;28;20386;-70
2023/11/30 00:27:20;;;;;;;7.05;5.25;;;;;;;;;;1033972;28;20501;-70
2023/11/30 00:27:51;;;;;;;13.32;3.85;;;;;;;;;;1033675;28;20047;-70
2023/11/30 00:28:21;;;;;;;3.30;2.47;;;;;;;;;;1034924;28;20029;-70
2023/11/30 00:28:52;;;;;;;21.67;7.38;;;;;;;;;;1033836;28;20081;-70
2023/11/30 00:29:22;;;;;;;3.30;1.90;;;;;;;;;;1034059;28;20018;-70
2023/11/30 00:29:53;;;;;;;12.48;4.28;;;;;;;;;;1033843;28;20600;-70
2023/11/30 00:30:23;;;;;;;8.18;3.83;;;;;;;;;;1033837;28;20029;-70
2023/11/30 00:30:54;;;;;;;31.95;6.35;;;;;;;;;;1033378;28;20029;-70
2023/11/30 00:31:25;;;;;;;2.92;2.70;;;;;;;;;;1033476;28;20018;-70
2023/11/30 00:31:55;;;;;;;3.53;3.22;;;;;;;;;;1033029;28;20442;-70
2023/11/30 00:32:26;;;;;;;2.05;1.45;;;;;;;;;;1033684;28;20026;-70
2023/11/30 00:32:57;;;;;;;1.90;1.80;;;;;;;;;;1033942;28;20062;-70
2023/11/30 00:33:27;;;;;;;11.40;3.10;;;;;;;;;;1033786;28;20021;-70
2023/11/30 00:33:57;;;;;;;38.85;3.33;;;;;;;;;;1033810;28;20528;-70
2023/11/30 00:34:28;;;;;;;8.48;4.75;;;;;;;;;;1033725;28;20064;-70
2023/11/30 00:34:58;;;;;;;23.52;4.28;;;;;;;;;;1033591;28;20865;-70
2023/11/30 00:35:29;;;;;;;54.63;5.18;;;;;;;;;;1033365;28;20025;-70
2023/11/30 00:35:59;;;;;;;13.25;4.95;;;;;;;;;;1033327;28;20034;-70
2023/11/30 00:36:30;;;;;;;27.02;1.90;;;;;;;;;;1033511;28;20049;-70
2023/11/30 00:37:00;;;;;;;6.65;3.15;;;;;;;;;;1033640;28;20053;-70
2023/11/30 00:37:30;;;;;;;1.77;1.65;;;;;;;;;;1034583;28;20366;-70
2023/11/30 00:38:01;;;;;;;13.02;3.42;;;;;;;;;;1033832;28;20528;-70
2023/11/30 00:38:31;;;;;;;4.55;2.38;;;;;;;;;;1033106;28;20112;-70
2023/11/30 00:39:03;;;;;;;3.30;3.05;;;;;;;;;;1033665;28;20030;-70
2023/11/30 00:39:33;;;;;;;10.88;2.78;;;;;;;;;;1033182;28;20045;-70
2023/11/30 00:40:04;;;;;;;1.35;0.88;;;;;;;;;;1033750;28;20018;-70
2023/11/30 00:40:37;;;;;;;14.70;2.53;;;;;;;;;;1033352;28;20072;-70
2023/11/30 00:41:13;;;;;;;18.83;3.33;;;;;;;;;;1033600;28;20018;-70
2023/11/30 00:41:43;;;;;;;3.78;3.42;;;;;;;;;;1033690;28;20492;-70
2023/11/30 00:42:13;;;;;;;2.08;1.92;;;;;;;;;;1033752;28;20087;-70
2023/11/30 00:42:44;;;;;;;3.92;3.63;;;;;;;;;;1033461;28;20035;-70
2023/11/30 00:43:14;;;;;;;12.10;3.53;;;;;;;;;;1033800;28;20073;-70
2023/11/30 00:43:45;;;;;;;10.35;4.55;;;;;;;;;;1033329;28;20108;-70
2023/11/30 00:44:18;;;;;;;9.50;3.25;;;;;;;;;;1033934;28;20088;-70
2023/11/30 00:44:48;;;;;;;1.25;1.13;;;;;;;;;;1033728;28;20629;-70
2023/11/30 00:45:18;;;;;;;1.38;1.27;;;;;;;;;;1033676;28;20018;-70
2023/11/30 00:45:49;;;;;;;12.85;5.10;;;;;;;;;;1033408;28;20045;-70
2023/11/30 00:46:19;;;;;;;7.55;3.15;;;;;;;;;;1034576;28;20010;-70
2023/11/30 00:46:50;;;;;;;11.25;3.58;;;;;;;;;;1032959;28;20018;-70
2023/11/30 00:47:20;;;;;;;1.67;1.58;;;;;;;;;;1033825;28;20113;-70
2023/11/30 00:47:51;;;;;;;4.13;3.90;;;;;;;;;;1033747;28;20076;-70
2023/11/30 00:48:21;;;;;;;3.92;3.42;;;;;;;;;;1034285;28;20026;-70
2023/11/30 00:48:52;;;;;;;22.65;3.75;;;;;;;;;;1033380;28;20031;-70
2023/11/30 00:49:22;;;;;;;8.15;4.20;;;;;;;;;;1033303;28;20367;-70
2023/11/30 00:49:52;;;;;;;3.08;2.88;;;;;;;;;;1033587;28;20032;-70
2023/11/30 00:50:23;;;;;;;3.92;2.90;;;;;;;;;;1033822;28;20029;-70
2023/11/30 00:50:53;;;;;;;2.72;0.82;;;;;;;;;;1033751;28;20496;-70
2023/11/30 00:51:24;;;;;;;10.18;6.45;;;;;;;;;;1033714;28;20156;-70
2023/11/30 00:51:54;;;;;;;7.80;3.42;;;;;;;;;;1032578;28;20033;-70
2023/11/30 00:52:25;;;;;;;0.70;0.70;;;;;;;;;;1033470;28;20545;-70
2023/11/30 00:52:55;;;;;;;7.25;4.70;;;;;;;;;;1033320;28;20022;-70
2023/11/30 00:53:25;;;;;;;4.32;2.28;;;;;;;;;;1033411;28;20029;-70
2023/11/30 00:53:56;;;;;;;0.70;0.70;;;;;;;;;;1033990;28;20024;-70
2023/11/30 00:54:26;;;;;;;7.35;4.95;;;;;;;;;;1033388;28;20061;-70
2023/11/30 00:54:57;;;;;;;9.05;4.30;;;;;;;;;;1033693;28;20386;-70
2023/11/30 00:55:27;;;;;;;1.95;1.85;;;;;;;;;;1033823;28;20061;-70
2023/11/30 00:55:59;;;;;;;5.07;3.20;;;;;;;;;;1033565;28;20482;-70
2023/11/30 00:56:29;;;;;;;3.15;2.90;;;;;;;;;;1033565;28;20057;-70
2023/11/30 00:57:00;;;;;;;13.77;6.25;;;;;;;;;;1033916;28;20030;-70
2023/11/30 00:57:30;;;;;;;3.45;2.95;;;;;;;;;;1034328;28;20029;-70
2023/11/30 00:58:00;;;;;;;1.27;1.20;;;;;;;;;;1033718;28;20049;-70
2023/11/30 00:58:31;;;;;;;2.70;2.47;;;;;;;;;;1033200;28;20022;-70
2023/11/30 00:59:01;;;;;;;12.38;6.65;;;;;;;;;;1033517;28;20061;-70
2023/11/30 00:59:32;;;;;;;1.42;1.33;;;;;;;;;;1033445;28;20014;-71
2023/11/30 01:00:05;;;;;;;0.77;0.77;;;;;;;;;;1033245;28;20073;-71
2023/11/30 01:00:36;;;;;;;7.55;3.92;;;;;;;;;;1033414;28;20541;-71
2023/11/30 01:01:06;;;;;;;35.65;4.13;;;;;;;;;;1033667;28;20109;-71
2023/11/30 01:01:36;;;;;;;22.60;4.75;;;;;;;;;;1033362;28;20030;-71
2023/11/30 01:02:07;;;;;;;8.07;4.43;;;;;;;;;;1033680;28;20030;-71
2023/11/30 01:02:37;;;;;;;5.88;5.38;;;;;;;;;;1033185;28;20120;-71
2023/11/30 01:03:08;;;;;;;1.02;0.93;;;;;;;;;;1033609;28;20065;-71
2023/11/30 01:03:38;;;;;;;4.75;4.28;;;;;;;;;;1033340;28;20435;-71
2023/11/30 01:04:09;;;;;;;12.20;3.22;;;;;;;;;;1033795;28;20391;-71
2023/11/30 01:04:42;;;;;;;6.28;4.95;;;;;;;;;;1033403;28;20478;-71
2023/11/30 01:05:13;;;;;;;50.20;4.97;;;;;;;;;;1033765;28;20026;-71
2023/11/30 01:05:43;;;;;;;4.63;4.15;;;;;;;;;;1033739;28;20544;-71
2023/11/30 01:06:14;;;;;;;6.75;4.07;;;;;;;;;;1033786;28;20088;-70
2023/11/30 01:06:44;;;;;;;0.60;0.60;;;;;;;;;;1033106;28;20026;-70
2023/11/30 01:07:14;;;;;;;1.85;1.75;;;;;;;;;;1033714;28;20033;-71
2023/11/30 01:07:45;;;;;;;20.50;3.40;;;;;;;;;;1032918;28;20685;-71
2023/11/30 01:08:15;;;;;;;9.00;1.92;;;;;;;;;;1033962;28;20467;-71
2023/11/30 01:08:46;;;;;;;4.22;3.67;;;;;;;;;;1033566;28;20397;-71
2023/11/30 01:09:16;;;;;;;29.83;2.50;;;;;;;;;;1033636;28;20026;-72
2023/11/30 01:09:47;;;;;;;8.40;5.70;;;;;;;;;;1033333;28;20027;-71
2023/11/30 01:10:17;;;;;;;5.68;3.72;;;;;;;;;;1033953;28;20080;-71
2023/11/30 01:10:48;;;;;;;10.43;4.32;;;;;;;;;;1033051;28;20076;-71
2023/11/30 01:11:18;;;;;;;4.15;3.75;;;;;;;;;;1034831;28;20026;-71
2023/11/30 01:11:49;;;;;;;2.72;2.33;;;;;;;;;;1033335;28;20482;-71
2023/11/30 01:12:19;;;;;;;1.73;1.58;;;;;;;;;;1033397;28;20045;-71
2023/11/30 01:12:50;;;;;;;11.27;3.95;;;;;;;;;;1033284;28;20033;-71
2023/11/30 01:13:20;;;;;;;10.35;4.40;;;;;;;;;;1032902;28;20022;-71
2023/11/30 01:13:51;;;;;;;18.13;3.92;;;;;;;;;;1033992;28;20160;-71
2023/11/30 01:14:21;;;;;;;23.42;1.65;;;;;;;;;;1032432;28;20026;-71
2023/11/30 01:14:52;;;;;;;3.38;2.63;;;;;;;;;;1032960;28;20025;-71
2023/11/30 01:15:22;;;;;;;3.05;1.98;;;;;;;;;;1033857;28;20025;-71
2023/11/30 01:15:52;;;;;;;3.83;2.10;;;;;;;;;;1033394;28;20165;-71
2023/11/30 01:16:23;;;;;;;7.90;4.22;;;;;;;;;;1033618;28;20445;-71
2023/11/30 01:16:53;;;;;;;8.57;4.00;;;;;;;;;;1033428;28;20026;-71
2023/11/30 01:17:24;;;;;;;1.15;1.15;;;;;;;;;;1033820;28;20557;-71
2023/11/30 01:17:54;;;;;;;9.82;3.95;;;;;;;;;;1033541;28;20019;-71
2023/11/30 01:18:24;;;;;;;3.25;2.03;;;;;;;;;;1033705;28;20121;-72
2023/11/30 01:18:55;;;;;;;4.32;4.00;;;;;;;;;;1033584;28;20028;-72
2023/11/30 01:19:25;;;;;;;0.95;0.95;;;;;;;;;;1034157;28;20087;-72
2023/11/30 01:19:57;;;;;;;5.70;3.10;;;;;;;;;;1033509;28;20072;-72
2023/11/30 01:20:27;;;;;;;7.15;2.83;;;;;;;;;;1034172;28;20025;-72
2023/11/30 01:20:57;;;;;;;7.40;6.10;;;;;;;;;;1033577;28;20625;-72
2023/11/30 01:21:28;;;;;;;3.80;2.67;;;;;;;;;;1033255;28;20036;-72
2023/11/30 01:21:58;;;;;;;2.28;2.08;;;;;;;;;;1033526;28;20227;-72
2023/11/30 01:22:29;;;;;;;9.32;4.50;;;;;;;;;;1032538;28;20512;-71
2023/11/30 01:22:59;;;;;;;5.13;4.25;;;;;;;;;;1033917;28;20068;-71
2023/11/30 01:23:30;;;;;;;32.00;3.38;;;;;;;;;;1030038;28;20023;-71
2023/11/30 01:24:00;;;;;;;35.53;4.50;;;;;;;;;;1029164;28;20409;-71
2023/11/30 01:24:30;;;;;;;4.80;3.47;;;;;;;;;;1033146;28;20046;-71
2023/11/30 01:25:01;;;;;;;3.97;3.60;;;;;;;;;;1033103;28;20034;-71
2023/11/30 01:25:31;;;;;;;3.95;2.90;;;;;;;;;;1034299;28;20030;-71
2023/11/30 01:26:02;;;;;;;3.17;2.83;;;;;;;;;;1032937;28;20026;-72
2023/11/30 01:26:33;;;;;;;1.67;1.50;;;;;;;;;;1033133;28;20016;-72
2023/11/30 01:27:04;;;;;;;4.28;2.75;;;;;;;;;;1033104;28;20092;-72
2023/11/30 01:27:34;;;;;;;9.48;5.22;;;;;;;;;;1033505;28;20080;-72
2023/11/30 01:28:05;;;;;;;5.20;3.22;;;;;;;;;;1032963;28;20452;-72
2023/11/30 01:28:35;;;;;;;2.95;2.72;;;;;;;;;;1031049;28;20561;-72
2023/11/30 01:29:05;;;;;;;0.70;0.63;;;;;;;;;;1031267;28;20026;-71
2023/11/30 01:29:36;;;;;;;3.25;2.53;;;;;;;;;;1032740;28;20108;-71
2023/11/30 01:30:06;;;;;;;3.63;3.33;;;;;;;;;;1033048;28;20100;-72
2023/11/30 01:30:37;;;;;;;37.63;4.45;;;;;;;;;;1032110;28;20036;-72
2023/11/30 01:31:07;;;;;;;8.07;5.43;;;;;;;;;;1030406;28;20406;-72
2023/11/30 01:31:38;;;;;;;4.95;4.07;;;;;;;;;;1029743;28;20037;-72
2023/11/30 01:32:08;;;;;;;3.13;2.83;;;;;;;;;;1031118;28;20025;-72
2023/11/30 01:32:39;;;;;;;4.40;3.65;;;;;;;;;;1030220;28;20064;-72
2023/11/30 01:33:09;;;;;;;4.70;4.30;;;;;;;;;;1032271;28;20021;-72
2023/11/30 01:33:40;;;;;;;16.58;2.72;;;;;;;;;;1031888;28;20026;-72
2023/11/30 01:34:11;;;;;;;0.43;0.43;;;;;;;;;;1031371;28;20072;-72
2023/11/30 01:34:41;;;;;;;18.27;3.92;;;;;;;;;;1030679;28;20026;-72
2023/11/30 01:35:12;;;;;;;18.92;2.60;;;;;;;;;;1031859;28;20117;-72
2023/11/30 01:35:43;;;;;;;2.67;2.25;;;;;;;;;;1031506;28;20517;-72
2023/11/30 01:36:14;;;;;;;3.70;3.25;;;;;;;;;;1032769;28;20042;-72
2023/11/30 01:36:44;;;;;;;1.67;1.58;;;;;;;;;;1033354;28;20031;-72
2023/11/30 01:37:16;;;;;;;4.00;2.25;;;;;;;;;;1031666;28;20030;-72
2023/11/30 01:37:46;;;;;;;7.47;3.58;;;;;;;;;;1032486;28;20046;-72
2023/11/30 01:38:16;;;;;;;14.32;4.50;;;;;;;;;;1032809;28;20021;-74
2023/11/30 01:38:47;;;;;;;2.67;2.40;;;;;;;;;;1033340;28;20386;-73
2023/11/30 01:39:17;;;;;;;4.03;3.08;;;;;;;;;;1032535;28;20133;-73
2023/11/30 01:39:48;;;;;;;15.88;7.03;;;;;;;;;;1033579;28;20037;-72
2023/11/30 01:40:18;;;;;;;9.32;3.58;;;;;;;;;;1033927;28;20022;-72
2023/11/30 01:40:49;;;;;;;9.73;1.45;;;;;;;;;;1031793;28;20454;-72
2023/11/30 01:41:19;;;;;;;2.85;2.08;;;;;;;;;;1032334;28;20029;-73
2023/11/30 01:41:50;;;;;;;4.80;4.03;;;;;;;;;;1033127;28;20557;-73
2023/11/30 01:42:21;;;;;;;3.67;3.38;;;;;;;;;;1033173;28;20033;-73
2023/11/30 01:42:51;;;;;;;11.45;3.85;;;;;;;;;;1034187;28;20029;-72
2023/11/30 01:43:22;;;;;;;3.38;2.25;;;;;;;;;;1032377;28;20026;-72
2023/11/30 01:43:53;;;;;;;2.95;2.75;;;;;;;;;;1033823;28;20025;-73
2023/11/30 01:44:23;;;;;;;2.40;2.22;;;;;;;;;;1033369;28;20077;-72
2023/11/30 01:44:53;;;;;;;10.68;6.38;;;;;;;;;;1033130;28;20604;-72
2023/11/30 01:45:24;;;;;;;7.15;6.45;;;;;;;;;;1028735;28;20077;-72
2023/11/30 01:45:55;;;;;;;23.27;5.32;;;;;;;;;;1030048;28;20034;-74
2023/11/30 01:46:25;;;;;;;7.93;4.78;;;;;;;;;;1029334;28;20169;-73
2023/11/30 01:46:56;;;;;;;13.73;4.05;;;;;;;;;;1029053;28;20022;-72
2023/11/30 01:47:26;;;;;;;2.67;2.47;;;;;;;;;;1028836;28;20413;-73
2023/11/30 01:47:56;;;;;;;6.82;2.40;;;;;;;;;;1026733;28;20070;-72
2023/11/30 01:48:27;;;;;;;7.47;6.70;;;;;;;;;;1030028;28;20173;-72
2023/11/30 01:48:58;;;;;;;4.88;2.88;;;;;;;;;;1033387;28;20029;-72
2023/11/30 01:49:28;;;;;;;25.92;5.57;;;;;;;;;;1033154;28;20037;-73
2023/11/30 01:50:02;;;;;;;7.50;5.40;;;;;;;;;;1033518;28;20157;-73
2023/11/30 01:50:32;;;;;;;9.18;5.05;;;;;;;;;;1032480;28;20390;-73
2023/11/30 01:51:05;;;;;;;8.07;4.53;;;;;;;;;;1032289;28;20045;-73
2023/11/30 01:51:36;;;;;;;5.72;3.65;;;;;;;;;;1033475;28;20014;-73
2023/11/30 01:52:07;;;;;;;1.65;1.55;;;;;;;;;;1032882;28;20018;-73
2023/11/30 01:52:39;;;;;;;9.65;4.22;;;;;;;;;;1033726;28;20037;-73
2023/11/30 01:53:11;;;;;;;4.88;4.43;;;;;;;;;;1032614;28;20041;-73
2023/11/30 01:53:42;;;;;;;2.80;1.80;;;;;;;;;;1031670;28;20109;-72
2023/11/30 01:54:12;;;;;;;12.27;4.13;;;;;;;;;;1029581;28;20418;-72
2023/11/30 01:54:43;;;;;;;5.65;5.05;;;;;;;;;;1029084;28;20114;-72
2023/11/30 01:55:14;;;;;;;2.15;1.98;;;;;;;;;;1029111;28;20407;-73
2023/11/30 01:55:45;;;;;;;4.38;3.17;;;;;;;;;;1032928;28;20088;-73
2023/11/30 01:56:15;;;;;;;8.95;8.13;;;;;;;;;;1032948;28;20026;-73
2023/11/30 01:56:46;;;;;;;24.75;5.32;;;;;;;;;;1032941;28;20129;-73
2023/11/30 01:57:16;;;;;;;7.55;5.68;;;;;;;;;;1032542;28;20607;-72
2023/11/30 01:57:47;;;;;;;1.27;1.17;;;;;;;;;;1032943;28;20394;-72
2023/11/30 01:58:17;;;;;;;4.75;4.32;;;;;;;;;;1032515;28;20030;-72
2023/11/30 01:58:49;;;;;;;9.43;5.28;;;;;;;;;;1033463;28;20383;-72
2023/11/30 01:59:20;;;;;;;7.25;4.20;;;;;;;;;;1033770;28;20030;-72
2023/11/30 01:59:51;;;;;;;12.65;5.80;;;;;;;;;;1033084;28;20397;-72
2023/11/30 02:00:21;;;;;;;8.65;5.85;;;;;;;;;;1031789;28;20038;-73
2023/11/30 02:00:52;;;;;;;1.92;1.67;;;;;;;;;;1031824;28;20450;-73
2023/11/30 02:01:28;;;;;;;2.88;2.65;;;;;;;;;;1032522;28;20406;-73
2023/11/30 02:01:59;;;;;;;17.40;2.72;;;;;;;;;;1033161;28;20026;-73
2023/11/30 02:02:29;;;;;;;2.92;2.67;;;;;;;;;;1033712;28;20030;-73
2023/11/30 02:03:00;;;;;;;6.95;5.13;;;;;;;;;;1031771;28;20026;-72
2023/11/30 02:03:31;;;;;;;3.75;2.58;;;;;;;;;;1032302;28;20026;-72
2023/11/30 02:04:13;;;;;;;7.45;4.38;;;;;;;;;;1032518;28;20411;-72
2023/11/30 02:04:44;;;;;;;27.33;3.50;;;;;;;;;;1031886;28;20069;-72
2023/11/30 02:05:17;;;;;;;19.23;3.50;;;;;;;;;;1034159;28;20034;-72
2023/11/30 02:05:48;;;;;;;9.50;4.38;;;;;;;;;;1032562;28;20021;-73
2023/11/30 02:06:19;;;;;;;2.50;2.35;;;;;;;;;;1033542;28;20065;-73
2023/11/30 02:06:49;;;;;;;3.85;3.33;;;;;;;;;;1032757;28;20029;-73
2023/11/30 02:07:20;;;;;;;18.85;3.70;;;;;;;;;;1031014;28;20128;-72
2023/11/30 02:07:50;;;;;;;20.67;4.78;;;;;;;;;;1033120;28;20080;-72
2023/11/30 02:08:21;;;;;;;10.27;4.32;;;;;;;;;;1032484;28;20053;-72
2023/11/30 02:08:51;;;;;;;11.23;4.07;;;;;;;;;;1032913;28;20113;-72
2023/11/30 02:09:21;;;;;;;13.88;4.45;;;;;;;;;;1032741;28;20108;-72
2023/11/30 02:09:52;;;;;;;2.35;1.70;;;;;;;;;;1032950;28;20153;-72
2023/11/30 02:10:23;;;;;;;27.17;3.05;;;;;;;;;;1033465;28;20018;-72
2023/11/30 02:10:54;;;;;;;11.18;7.32;;;;;;;;;;1032907;28;20576;-73
2023/11/30 02:11:24;;;;;;;0.82;0.82;;;;;;;;;;1032717;28;20071;-73
2023/11/30 02:11:54;;;;;;;2.30;2.10;;;;;;;;;;1033009;28;20030;-73
2023/11/30 02:12:25;;;;;;;6.00;5.45;;;;;;;;;;1034179;28;20065;-73
2023/11/30 02:12:55;;;;;;;5.38;2.47;;;;;;;;;;1032999;28;20037;-73
2023/11/30 02:13:26;;;;;;;3.10;2.75;;;;;;;;;;1032488;28;20041;-72
2023/11/30 02:13:56;;;;;;;2.55;2.35;;;;;;;;;;1032823;28;20026;-72
2023/11/30 02:14:30;;;;;;;3.75;3.38;;;;;;;;;;1034240;28;20010;-72
2023/11/30 02:15:01;;;;;;;3.90;3.60;;;;;;;;;;1031069;28;20026;-72
2023/11/30 02:15:32;;;;;;;2.58;2.08;;;;;;;;;;1029020;28;20062;-72
2023/11/30 02:16:05;;;;;;;23.77;4.32;;;;;;;;;;1029035;28;20037;-72
2023/11/30 02:16:35;;;;;;;3.28;2.97;;;;;;;;;;1032737;28;20032;-72
2023/11/30 02:17:06;;;;;;;12.60;2.97;;;;;;;;;;1032881;28;20033;-72
2023/11/30 02:17:36;;;;;;;24.52;7.45;;;;;;;;;;1033280;28;20033;-72
2023/11/30 02:18:06;;;;;;;5.03;2.80;;;;;;;;;;1033212;28;20017;-72
2023/11/30 02:18:37;;;;;;;8.43;2.67;;;;;;;;;;1033782;28;20163;-72
2023/11/30 02:19:07;;;;;;;1.98;1.88;;;;;;;;;;1032763;28;20010;-72
2023/11/30 02:19:39;;;;;;;3.30;2.55;;;;;;;;;;1032453;28;20022;-72
2023/11/30 02:20:10;;;;;;;9.45;5.20;;;;;;;;;;1031885;28;20035;-72
2023/11/30 02:20:40;;;;;;;3.08;2.08;;;;;;;;;;1029405;28;20033;-72
2023/11/30 02:21:11;;;;;;;9.73;5.03;;;;;;;;;;1025150;28;20409;-72
2023/11/30 02:21:48;;;;;;;2.00;1.90;;;;;;;;;;1025055;28;20141;-72
2023/11/30 02:22:19;;;;;;;1.58;1.48;;;;;;;;;;1024857;28;20022;-72
2023/11/30 02:22:49;;;;;;;8.68;4.03;;;;;;;;;;1026284;28;20554;-73
2023/11/30 02:23:19;;;;;;;3.40;1.42;;;;;;;;;;1031044;28;20016;-72
2023/11/30 02:23:50;;;;;;;4.22;3.83;;;;;;;;;;1028560;28;20026;-72
2023/11/30 02:24:21;;;;;;;3.00;2.55;;;;;;;;;;1031003;28;20034;-72
2023/11/30 02:24:51;;;;;;;18.92;3.58;;;;;;;;;;1031365;28;20058;-72
2023/11/30 02:25:21;;;;;;;10.35;5.28;;;;;;;;;;1032097;28;20053;-73
2023/11/30 02:25:52;;;;;;;11.13;3.03;;;;;;;;;;1032329;28;20022;-73
2023/11/30 02:26:22;;;;;;;10.02;4.38;;;;;;;;;;1032050;28;20504;-73
2023/11/30 02:26:53;;;;;;;7.13;3.35;;;;;;;;;;1029638;28;20042;-73
2023/11/30 02:27:28;;;;;;;1.90;1.80;;;;;;;;;;1029566;28;20030;-73
2023/11/30 02:27:59;;;;;;;15.52;8.00;;;;;;;;;;1031896;28;20021;-72
2023/11/30 02:28:29;;;;;;;5.35;2.67;;;;;;;;;;1030838;28;20552;-72
2023/11/30 02:28:59;;;;;;;3.40;3.10;;;;;;;;;;1031112;28;20021;-72
2023/11/30 02:29:30;;;;;;;3.40;2.03;;;;;;;;;;1031378;28;20030;-72
2023/11/30 02:30:00;;;;;;;4.65;2.72;;;;;;;;;;1030895;28;20376;-72
2023/11/30 02:30:31;;;;;;;18.80;8.25;;;;;;;;;;1030942;28;20538;-72
2023/11/30 02:31:01;;;;;;;13.38;3.42;;;;;;;;;;1030455;28;20592;-72
2023/11/30 02:31:32;;;;;;;15.48;4.85;;;;;;;;;;1031241;28;20124;-73
2023/11/30 02:32:03;;;;;;;15.23;5.63;;;;;;;;;;1029738;28;20069;-73
2023/11/30 02:32:33;;;;;;;6.75;1.80;;;;;;;;;;1030192;28;20112;-72
2023/11/30 02:33:04;;;;;;;6.25;2.83;;;;;;;;;;1030208;28;20490;-72
2023/11/30 02:33:34;;;;;;;6.18;2.60;;;;;;;;;;1031593;28;20049;-73
2023/11/30 02:34:04;;;;;;;5.03;3.92;;;;;;;;;;1030227;28;20026;-72
2023/11/30 02:34:35;;;;;;;2.88;1.80;;;;;;;;;;1031925;28;20032;-72
2023/11/30 02:35:05;;;;;;;2.22;2.08;;;;;;;;;;1031353;28;20053;-72
2023/11/30 02:35:36;;;;;;;2.88;2.35;;;;;;;;;;1031038;28;20063;-72
2023/11/30 02:36:06;;;;;;;1.92;1.58;;;;;;;;;;1030239;28;20019;-72
2023/11/30 02:36:37;;;;;;;24.05;3.97;;;;;;;;;;1032441;28;20552;-72
2023/11/30 02:37:07;;;;;;;4.60;3.08;;;;;;;;;;1030730;28;20029;-72
2023/11/30 02:37:38;;;;;;;16.35;6.97;;;;;;;;;;1028007;28;20511;-72
2023/11/30 02:38:08;;;;;;;4.20;3.10;;;;;;;;;;1026370;28;20478;-73
2023/11/30 02:38:39;;;;;;;8.30;4.43;;;;;;;;;;1032026;28;20049;-73
2023/11/30 02:39:09;;;;;;;5.03;4.22;;;;;;;;;;1031237;28;20469;-73
2023/11/30 02:39:40;;;;;;;22.23;7.93;;;;;;;;;;1030657;28;20510;-72
2023/11/30 02:40:10;;;;;;;7.30;4.47;;;;;;;;;;1031497;28;20136;-72
2023/11/30 02:40:41;;;;;;;15.35;6.53;;;;;;;;;;1029349;28;20515;-73
2023/11/30 02:41:11;;;;;;;3.55;2.90;;;;;;;;;;1028074;28;20061;-72
2023/11/30 02:41:42;;;;;;;3.30;2.83;;;;;;;;;;1029213;28;20061;-72
2023/11/30 02:42:13;;;;;;;9.90;4.05;;;;;;;;;;1030166;28;20021;-72
2023/11/30 02:42:43;;;;;;;1.85;1.70;;;;;;;;;;1033802;28;20057;-72
2023/11/30 02:43:14;;;;;;;1.80;1.15;;;;;;;;;;1028286;28;20216;-72
2023/11/30 02:43:44;;;;;;;4.93;2.70;;;;;;;;;;1024027;28;20033;-72
2023/11/30 02:44:15;;;;;;;13.25;3.78;;;;;;;;;;1024087;28;20420;-72
2023/11/30 02:44:45;;;;;;;5.70;3.70;;;;;;;;;;1026988;28;20026;-72
2023/11/30 02:45:15;;;;;;;2.08;1.83;;;;;;;;;;1031380;28;20564;-71
2023/11/30 02:45:46;;;;;;;3.25;2.95;;;;;;;;;;1032343;28;20685;-72
2023/11/30 02:46:16;;;;;;;3.22;2.25;;;;;;;;;;1031730;28;20036;-72
2023/11/30 02:46:47;;;;;;;4.07;3.75;;;;;;;;;;1032054;28;20080;-72
2023/11/30 02:47:17;;;;;;;18.90;5.68;;;;;;;;;;1030889;28;20022;-72
2023/11/30 02:47:48;;;;;;;10.30;3.83;;;;;;;;;;1032706;28;20041;-71
2023/11/30 02:48:18;;;;;;;2.67;2.10;;;;;;;;;;1031860;28;20242;-71
2023/11/30 02:48:48;;;;;;;5.47;3.22;;;;;;;;;;1031539;28;20030;-72
2023/11/30 02:49:19;;;;;;;13.02;5.57;;;;;;;;;;1031528;28;20446;-72
2023/11/30 02:49:49;;;;;;;6.47;3.50;;;;;;;;;;1032282;28;20030;-72
2023/11/30 02:50:20;;;;;;;14.00;3.63;;;;;;;;;;1033549;28;20032;-72
2023/11/30 02:50:50;;;;;;;8.43;5.65;;;;;;;;;;1032253;28;20040;-72
2023/11/30 02:51:21;;;;;;;5.03;3.88;;;;;;;;;;1031171;28;20718;-72
2023/11/30 02:51:51;;;;;;;4.07;3.72;;;;;;;;;;1032152;28;20029;-71
2023/11/30 02:52:22;;;;;;;25.90;3.10;;;;;;;;;;1031846;28;20478;-72
2023/11/30 02:52:52;;;;;;;6.28;3.95;;;;;;;;;;1033401;28;20073;-71
2023/11/30 02:53:23;;;;;;;7.78;4.10;;;;;;;;;;1032337;28;20030;-71
2023/11/30 02:53:53;;;;;;;11.73;5.43;;;;;;;;;;1032026;28;20049;-72
2023/11/30 02:54:24;;;;;;;9.45;3.10;;;;;;;;;;1031526;28;21237;-72
2023/11/30 02:54:54;;;;;;;5.20;2.97;;;;;;;;;;1033030;28;20037;-72
2023/11/30 02:55:24;;;;;;;5.97;3.50;;;;;;;;;;1032306;28;20474;-72
2023/11/30 02:55:55;;;;;;;25.38;5.28;;;;;;;;;;1033799;28;20026;-72
2023/11/30 02:56:25;;;;;;;4.78;3.78;;;;;;;;;;1032502;28;20038;-73
2023/11/30 02:56:56;;;;;;;4.35;3.30;;;;;;;;;;1032065;28;20029;-73
2023/11/30 02:57:26;;;;;;;4.47;2.90;;;;;;;;;;1027857;28;20342;-73
2023/11/30 02:57:57;;;;;;;5.20;3.53;;;;;;;;;;1028384;28;20038;-72
2023/11/30 02:58:27;;;;;;;6.13;5.53;;;;;;;;;;1028511;28;20133;-72
2023/11/30 02:58:57;;;;;;;10.00;6.10;;;;;;;;;;1032848;28;20547;-73
2023/11/30 02:59:28;;;;;;;3.08;2.47;;;;;;;;;;1031464;28;20038;-72
2023/11/30 02:59:58;;;;;;;9.45;8.20;;;;;;;;;;1026470;28;20128;-74
2023/11/30 03:00:29;;;;;;;13.20;7.38;;;;;;;;;;1027408;28;20026;-73
2023/11/30 03:01:01;;;;;;;8.38;3.63;;;;;;;;;;1027772;28;20165;-72
2023/11/30 03:01:32;;;;;;;13.23;4.28;;;;;;;;;;1027121;28;20188;-72
2023/11/30 03:02:03;;;;;;;10.18;7.07;;;;;;;;;;1024786;28;20104;-72
2023/11/30 03:02:34;;;;;;;14.23;4.65;;;;;;;;;;1027897;28;20037;-72
2023/11/30 03:03:04;;;;;;;4.30;2.47;;;;;;;;;;1026984;28;20216;-72